createdAt,value
2019-02-11T00:00:01.068Z,96160.58
2019-02-11T00:02:29.310Z,96149.58
2019-02-11T00:04:57.499Z,96172.58
2019-02-11T00:07:25.675Z,96164.45
2019-02-11T00:09:53.851Z,96160.20
2019-02-11T00:12:22.025Z,96166.64
2019-02-11T00:14:50.197Z,96181.61
2019-02-11T00:17:18.365Z,96180.70
2019-02-11T00:19:46.546Z,96164.45
2019-02-11T00:22:14.716Z,96159.34
2019-02-11T00:24:42.897Z,96169.57
2019-02-11T00:27:11.062Z,96185.02
2019-02-11T00:29:39.280Z,96150.98
2019-02-11T00:32:07.449Z,96174.87
2019-02-11T00:34:35.626Z,96171.05
2019-02-11T00:37:03.793Z,96145.95
2019-02-11T00:39:31.966Z,96147.23
2019-02-11T00:42:00.134Z,96152.34
2019-02-11T00:44:28.317Z,96151.16
2019-02-11T00:46:56.492Z,96160.55
2019-02-11T00:49:24.730Z,96169.08
2019-02-11T00:51:52.880Z,96178.88
2019-02-11T00:54:21.086Z,96195.36
2019-02-11T00:56:49.272Z,96205.55
2019-02-11T00:59:17.442Z,96222.16
2019-02-11T01:01:45.629Z,96223.52
2019-02-11T01:04:13.836Z,96225.25
2019-02-11T01:06:42.007Z,96222.69
2019-02-11T01:09:10.208Z,96237.11
2019-02-11T01:11:38.406Z,96242.23
2019-02-11T01:14:06.576Z,96241.23
2019-02-11T01:16:34.768Z,96244.17
2019-02-11T01:19:02.944Z,96254.02
2019-02-11T01:21:31.118Z,96251.05
2019-02-11T01:23:59.285Z,96256.45
2019-02-11T01:26:27.460Z,96259.02
2019-02-11T01:28:55.657Z,96277.31
2019-02-11T01:31:23.825Z,96276.82
2019-02-11T01:33:52.006Z,96286.05
2019-02-11T01:36:20.174Z,96281.31
2019-02-11T01:38:48.374Z,96283.38
2019-02-11T01:41:16.539Z,96275.67
2019-02-11T01:43:44.745Z,96283.30
2019-02-11T01:46:12.915Z,96285.85
2019-02-11T01:48:41.083Z,96274.31
2019-02-11T01:51:09.251Z,96287.43
2019-02-11T01:53:37.431Z,96278.06
2019-02-11T01:56:05.597Z,96282.23
2019-02-11T01:58:33.795Z,96290.80
2019-02-11T02:01:01.980Z,96293.36
2019-02-11T02:03:30.139Z,96287.34
2019-02-11T02:05:58.314Z,96298.47
2019-02-11T02:08:26.477Z,96302.77
2019-02-11T02:10:54.649Z,96299.80
2019-02-11T02:13:22.847Z,96313.03
2019-02-11T02:15:51.017Z,96321.94
2019-02-11T02:18:19.215Z,96321.94
2019-02-11T02:20:47.383Z,96321.56
2019-02-11T02:23:15.590Z,96326.27
2019-02-11T02:25:43.752Z,96327.58
2019-02-11T02:28:11.925Z,96331.87
2019-02-11T02:30:40.099Z,96331.45
2019-02-11T02:33:08.271Z,96336.19
2019-02-11T02:35:36.449Z,96325.55
2019-02-11T02:38:04.638Z,96327.66
2019-02-11T02:40:32.807Z,96334.05
2019-02-11T02:43:01.146Z,96337.06
2019-02-11T02:45:29.316Z,96334.54
2019-02-11T02:47:57.486Z,96336.65
2019-02-11T02:50:25.759Z,96338.34
2019-02-11T02:52:53.934Z,96347.77
2019-02-11T02:55:22.093Z,96338.83
2019-02-11T02:57:50.257Z,96340.06
2019-02-11T03:00:18.433Z,96335.37
2019-02-11T03:02:46.595Z,96343.48
2019-02-11T03:05:14.771Z,96341.80
2019-02-11T03:07:42.945Z,96333.67
2019-02-11T03:10:11.480Z,96337.92
2019-02-11T03:12:39.659Z,96343.94
2019-02-11T03:15:09.876Z,96344.31
2019-02-11T03:17:38.049Z,96344.80
2019-02-11T03:20:08.271Z,96350.78
2019-02-11T03:22:36.449Z,96346.57
2019-02-11T03:25:06.457Z,96359.34
2019-02-11T03:27:34.663Z,96365.73
2019-02-11T03:30:02.852Z,96353.34
2019-02-11T03:32:30.986Z,96346.57
2019-02-11T03:34:59.143Z,96356.80
2019-02-11T03:37:27.304Z,96364.05
2019-02-11T03:39:55.472Z,96367.47
2019-02-11T03:42:23.721Z,96372.66
2019-02-11T03:44:51.884Z,96365.06
2019-02-11T03:47:20.053Z,96369.88
2019-02-11T03:49:48.225Z,96380.09
2019-02-11T03:52:16.391Z,96381.00
2019-02-11T03:54:44.582Z,96394.26
2019-02-11T03:57:12.748Z,96398.92
2019-02-11T03:59:40.913Z,96398.02
2019-02-11T04:02:09.075Z,96409.48
2019-02-11T04:04:37.256Z,96401.81
2019-02-11T04:07:05.419Z,96404.78
2019-02-11T04:09:33.653Z,96403.58
2019-02-11T04:12:01.843Z,96395.98
2019-02-11T04:14:29.985Z,96410.11
2019-02-11T04:16:58.149Z,96419.13
2019-02-11T04:19:26.321Z,96417.02
2019-02-11T04:22:07.652Z,96427.34
2019-02-11T04:24:35.811Z,96423.58
2019-02-11T04:27:03.982Z,96450.47
2019-02-11T04:29:32.185Z,96448.84
2019-02-11T04:32:00.352Z,96452.33
2019-02-11T04:34:28.518Z,96460.09
2019-02-11T04:36:56.698Z,96470.76
2019-02-11T04:39:24.874Z,96474.66
2019-02-11T04:41:53.044Z,96482.41
2019-02-11T04:44:21.225Z,96485.06
2019-02-11T04:46:49.460Z,96492.78
2019-02-11T04:49:17.644Z,96492.45
2019-02-11T04:51:45.839Z,96504.04
2019-02-11T04:54:13.987Z,96500.75
2019-02-11T04:56:42.195Z,96504.25
2019-02-11T04:59:10.375Z,96506.48
2019-02-11T05:01:38.540Z,96516.33
2019-02-11T05:04:06.713Z,96524.04
2019-02-11T05:06:34.894Z,96530.45
2019-02-11T05:09:04.939Z,96529.65
2019-02-11T05:11:33.109Z,96539.47
2019-02-11T05:14:01.276Z,96542.48
2019-02-11T05:16:29.459Z,96542.96
2019-02-11T05:18:57.632Z,96543.81
2019-02-11T05:21:25.796Z,96555.77
2019-02-11T05:23:53.963Z,96553.22
2019-02-11T05:26:22.872Z,96568.97
2019-02-11T05:28:51.107Z,96575.35
2019-02-11T05:31:19.280Z,96579.65
2019-02-11T05:33:47.534Z,96591.98
2019-02-11T05:36:15.707Z,96598.84
2019-02-11T05:38:43.869Z,96597.14
2019-02-11T05:41:12.090Z,96607.01
2019-02-11T05:43:40.256Z,96609.58
2019-02-11T05:46:08.441Z,96619.81
2019-02-11T05:48:36.602Z,96626.66
2019-02-11T05:51:04.802Z,96632.64
2019-02-11T05:53:33.029Z,96641.59
2019-02-11T05:56:01.204Z,96653.06
2019-02-11T05:58:29.379Z,96648.41
2019-02-11T06:00:57.541Z,96659.89
2019-02-11T06:03:25.716Z,96661.58
2019-02-11T06:05:53.880Z,96674.34
2019-02-11T06:08:22.048Z,96682.87
2019-02-11T06:10:50.485Z,96683.72
2019-02-11T06:13:18.649Z,96690.95
2019-02-11T06:15:46.825Z,96703.27
2019-02-11T06:18:14.984Z,96703.64
2019-02-11T06:20:43.156Z,96707.91
2019-02-11T06:23:11.331Z,96717.69
2019-02-11T06:25:39.504Z,96721.98
2019-02-11T06:28:07.676Z,96734.31
2019-02-11T06:30:35.839Z,96743.23
2019-02-11T06:33:04.014Z,96745.79
2019-02-11T06:35:32.180Z,96756.02
2019-02-11T06:38:00.345Z,96755.60
2019-02-11T06:40:28.518Z,96766.19
2019-02-11T06:42:56.690Z,96774.69
2019-02-11T06:45:24.871Z,96781.52
2019-02-11T06:47:53.046Z,96788.36
2019-02-11T06:50:21.213Z,96789.65
2019-02-11T06:52:49.383Z,96796.02
2019-02-11T06:55:17.550Z,96803.67
2019-02-11T06:57:45.721Z,96810.91
2019-02-11T07:00:15.036Z,96825.81
2019-02-11T07:02:43.241Z,96830.49
2019-02-11T07:05:11.415Z,96832.66
2019-02-11T07:07:39.582Z,96832.23
2019-02-11T07:10:12.313Z,96841.16
2019-02-11T07:12:40.488Z,96843.28
2019-02-11T07:15:11.558Z,96855.60
2019-02-11T07:17:39.719Z,96859.82
2019-02-11T07:20:09.726Z,96870.45
2019-02-11T07:22:37.914Z,96877.67
2019-02-11T07:25:07.830Z,96882.77
2019-02-11T07:27:36.015Z,96886.58
2019-02-11T07:30:05.067Z,96886.11
2019-02-11T07:32:33.263Z,96887.81
2019-02-11T07:35:01.464Z,96888.63
2019-02-11T07:37:29.646Z,96893.70
2019-02-11T07:39:57.840Z,96892.83
2019-02-11T07:42:36.416Z,96901.28
2019-02-11T07:45:09.060Z,96904.22
2019-02-11T07:47:37.311Z,96910.10
2019-02-11T07:50:06.613Z,96917.27
2019-02-11T07:52:34.790Z,96926.16
2019-02-11T07:55:02.985Z,96928.66
2019-02-11T07:57:31.150Z,96936.30
2019-02-11T08:00:00.290Z,96935.84
2019-02-11T08:02:28.468Z,96933.28
2019-02-11T08:04:56.674Z,96946.01
2019-02-11T08:07:24.844Z,96949.84
2019-02-11T08:09:53.009Z,96950.23
2019-02-11T08:12:21.190Z,96959.55
2019-02-11T08:14:49.362Z,96958.69
2019-02-11T08:17:17.526Z,96960.41
2019-02-11T08:19:45.697Z,96968.48
2019-02-11T08:22:13.872Z,96976.53
2019-02-11T08:24:42.048Z,96981.61
2019-02-11T08:27:10.221Z,96995.20
2019-02-11T08:29:38.394Z,96994.35
2019-02-11T08:32:06.564Z,97005.36
2019-02-11T08:34:34.736Z,97002.77
2019-02-11T08:37:02.902Z,97011.27
2019-02-11T08:39:31.068Z,97015.45
2019-02-11T08:41:59.232Z,97020.55
2019-02-11T08:44:27.401Z,97015.44
2019-02-11T08:46:55.565Z,97028.13
2019-02-11T08:49:23.762Z,97034.48
2019-02-11T08:51:51.894Z,97042.11
2019-02-11T08:54:20.060Z,97046.33
2019-02-11T08:56:48.226Z,97051.83
2019-02-11T08:59:16.401Z,97059.45
2019-02-11T09:01:44.593Z,97065.38
2019-02-11T09:04:18.822Z,97064.50
2019-02-11T09:06:42.665Z,97074.68
2019-02-11T09:09:10.842Z,97082.30
2019-02-11T09:11:39.024Z,97091.27
2019-02-11T09:14:07.195Z,97093.84
2019-02-11T09:16:35.360Z,97095.08
2019-02-11T09:19:03.530Z,97095.88
2019-02-11T09:21:31.716Z,97100.98
2019-02-11T09:23:59.884Z,97112.91
2019-02-11T09:26:28.062Z,97103.53
2019-02-11T09:28:56.221Z,97114.17
2019-02-11T09:31:24.390Z,97119.67
2019-02-11T09:33:52.561Z,97125.20
2019-02-11T09:36:22.463Z,97137.50
2019-02-11T09:38:50.582Z,97140.00
2019-02-11T09:41:18.747Z,97145.52
2019-02-11T09:43:46.916Z,97147.61
2019-02-11T09:46:15.124Z,97151.84
2019-02-11T09:48:43.306Z,97157.30
2019-02-11T09:51:11.474Z,97158.55
2019-02-11T09:53:39.639Z,97167.92
2019-02-11T09:56:07.875Z,97155.98
2019-02-11T09:58:36.007Z,97172.14
2019-02-11T10:01:04.181Z,97178.03
2019-02-11T10:03:32.340Z,97175.88
2019-02-11T10:06:00.511Z,97183.93
2019-02-11T10:08:28.700Z,97193.70
2019-02-11T10:10:56.882Z,97193.27
2019-02-11T10:13:25.057Z,97205.55
2019-02-11T10:15:53.229Z,97210.17
2019-02-11T10:18:21.398Z,97215.21
2019-02-11T10:20:49.565Z,97220.27
2019-02-11T10:23:17.756Z,97221.06
2019-02-11T10:25:45.948Z,97235.56
2019-02-11T10:28:14.113Z,97234.25
2019-02-11T10:30:42.293Z,97241.00
2019-02-11T10:33:10.463Z,97247.86
2019-02-11T10:35:42.226Z,97248.70
2019-02-11T10:38:08.531Z,97254.14
2019-02-11T10:40:36.710Z,97252.89
2019-02-11T10:43:04.880Z,97251.61
2019-02-11T10:45:36.593Z,97266.95
2019-02-11T10:48:02.937Z,97267.73
2019-02-11T10:50:31.104Z,97263.48
2019-02-11T10:52:59.273Z,97278.88
2019-02-11T10:55:27.444Z,97275.00
2019-02-11T10:57:55.640Z,97290.35
2019-02-11T11:00:24.851Z,97288.75
2019-02-11T11:02:53.016Z,97287.50
2019-02-11T11:05:21.199Z,97302.91
2019-02-11T11:07:49.390Z,97305.53
2019-02-11T11:10:23.617Z,97303.46
2019-02-11T11:12:51.781Z,97303.95
2019-02-11T11:15:19.951Z,97313.71
2019-02-11T11:17:48.117Z,97315.44
2019-02-11T11:20:17.730Z,97317.11
2019-02-11T11:22:46.065Z,97320.08
2019-02-11T11:25:16.183Z,97320.92
2019-02-11T11:27:45.370Z,97316.19
2019-02-11T11:30:15.293Z,97328.45
2019-02-11T11:32:43.895Z,97330.55
2019-02-11T11:35:12.714Z,97333.98
2019-02-11T11:37:40.902Z,97330.89
2019-02-11T11:40:24.253Z,97329.91
2019-02-11T11:42:52.425Z,97342.56
2019-02-11T11:45:21.049Z,97342.05
2019-02-11T11:47:49.222Z,97354.72
2019-02-11T11:50:17.711Z,97344.86
2019-02-11T11:52:45.885Z,97351.72
2019-02-11T11:55:19.220Z,97354.70
2019-02-11T11:57:47.410Z,97354.32
2019-02-11T12:00:22.025Z,97359.05
2019-02-11T12:03:01.997Z,97357.81
2019-02-11T12:05:20.364Z,97368.91
2019-02-11T12:07:48.534Z,97357.81
2019-02-11T12:10:16.716Z,97360.72
2019-02-11T12:12:44.896Z,97363.25
2019-02-11T12:15:15.662Z,97369.14
2019-02-11T12:17:45.163Z,97379.35
2019-02-11T12:20:14.485Z,97368.18
2019-02-11T12:22:42.651Z,97374.50
2019-02-11T12:25:15.403Z,97382.92
2019-02-11T12:27:43.590Z,97386.30
2019-02-11T12:30:17.006Z,97398.59
2019-02-11T12:32:45.180Z,97392.11
2019-02-11T12:35:14.101Z,97392.06
2019-02-11T12:37:42.301Z,97392.92
2019-02-11T12:40:11.797Z,97402.95
2019-02-11T12:42:40.005Z,97406.02
2019-02-11T12:45:11.083Z,97410.05
2019-02-11T12:47:39.251Z,97429.86
2019-02-11T12:50:13.128Z,97417.58
2019-02-11T12:52:41.289Z,97420.61
2019-02-11T12:55:12.045Z,97424.81
2019-02-11T12:57:40.234Z,97423.03
2019-02-11T13:00:16.816Z,97429.44
2019-02-11T13:02:44.058Z,97430.36
2019-02-11T13:05:12.471Z,97431.64
2019-02-11T13:07:40.645Z,97427.80
2019-02-11T13:10:12.395Z,97424.84
2019-02-11T13:12:40.581Z,97433.73
2019-02-11T13:15:10.781Z,97434.45
2019-02-11T13:17:38.977Z,97435.11
2019-02-11T13:20:11.841Z,97441.97
2019-02-11T13:22:40.136Z,97443.98
2019-02-11T13:25:10.684Z,97454.21
2019-02-11T13:27:38.837Z,97463.20
2019-02-11T13:30:11.811Z,97469.16
2019-02-11T13:32:40.220Z,97472.05
2019-02-11T13:35:08.472Z,97474.09
2019-02-11T13:37:36.647Z,97471.95
2019-02-11T13:40:06.257Z,97481.80
2019-02-11T13:42:34.430Z,97489.53
2019-02-11T13:45:02.682Z,97496.62
2019-02-11T13:47:30.936Z,97507.84
2019-02-11T13:49:59.129Z,97511.38
2019-02-11T13:52:27.572Z,97508.91
2019-02-11T13:54:56.381Z,97523.48
2019-02-11T13:57:24.671Z,97533.80
2019-02-11T13:59:54.578Z,97531.77
2019-02-11T14:02:22.820Z,97534.38
2019-02-11T14:04:50.937Z,97539.55
2019-02-11T14:07:19.313Z,97540.02
2019-02-11T14:09:47.454Z,97548.60
2019-02-11T14:12:15.655Z,97541.82
2019-02-11T14:14:43.832Z,97546.94
2019-02-11T14:17:11.985Z,97558.02
2019-02-11T14:19:40.155Z,97564.00
2019-02-11T14:22:08.334Z,97568.29
2019-02-11T14:24:36.501Z,97570.45
2019-02-11T14:27:04.682Z,97570.45
2019-02-11T14:29:32.854Z,97576.00
2019-02-11T14:32:01.031Z,97584.95
2019-02-11T14:34:29.194Z,97587.11
2019-02-11T14:36:57.381Z,97591.80
2019-02-11T14:39:25.543Z,97597.36
2019-02-11T14:41:53.729Z,97603.32
2019-02-11T14:44:21.922Z,97605.05
2019-02-11T14:46:50.143Z,97609.72
2019-02-11T14:49:18.316Z,97609.28
2019-02-11T14:51:46.481Z,97613.13
2019-02-11T14:54:14.651Z,97620.79
2019-02-11T14:56:42.936Z,97625.91
2019-02-11T14:59:11.091Z,97625.50
2019-02-11T15:01:39.262Z,97629.34
2019-02-11T15:04:07.454Z,97628.46
2019-02-11T15:06:35.621Z,97626.35
2019-02-11T15:09:04.770Z,97636.13
2019-02-11T15:11:32.935Z,97639.14
2019-02-11T15:14:01.109Z,97648.92
2019-02-11T15:16:29.281Z,97642.14
2019-02-11T15:18:57.787Z,97651.92
2019-02-11T15:21:26.009Z,97655.76
2019-02-11T15:23:54.190Z,97663.85
2019-02-11T15:26:22.363Z,97665.98
2019-02-11T15:28:50.549Z,97670.66
2019-02-11T15:31:18.723Z,97674.95
2019-02-11T15:33:46.893Z,97680.07
2019-02-11T15:36:15.062Z,97692.45
2019-02-11T15:38:43.268Z,97695.86
2019-02-11T15:41:11.480Z,97699.70
2019-02-11T15:43:39.629Z,97711.20
2019-02-11T15:46:07.792Z,97717.59
2019-02-11T15:48:42.917Z,97722.71
2019-02-11T15:51:05.854Z,97724.44
2019-02-11T15:53:34.028Z,97726.12
2019-02-11T15:56:07.675Z,97727.40
2019-02-11T15:58:32.191Z,97734.67
2019-02-11T16:01:00.436Z,97740.62
2019-02-11T16:03:28.649Z,97745.73
2019-02-11T16:05:56.817Z,97740.61
2019-02-11T16:08:24.985Z,97750.84
2019-02-11T16:11:01.061Z,97752.96
2019-02-11T16:13:23.046Z,97752.56
2019-02-11T16:15:51.208Z,97754.69
2019-02-11T16:18:19.380Z,97747.02
2019-02-11T16:20:47.574Z,97752.57
2019-02-11T16:23:15.748Z,97756.41
2019-02-11T16:25:43.919Z,97757.25
2019-02-11T16:28:12.105Z,97765.77
2019-02-11T16:30:40.250Z,97762.80
2019-02-11T16:33:08.419Z,97771.31
2019-02-11T16:35:36.642Z,97771.31
2019-02-11T16:38:04.808Z,97775.59
2019-02-11T16:40:32.981Z,97783.70
2019-02-11T16:43:01.160Z,97780.27
2019-02-11T16:45:29.332Z,97791.37
2019-02-11T16:47:57.503Z,97789.22
2019-02-11T16:50:25.679Z,97800.72
2019-02-11T16:52:53.871Z,97809.27
2019-02-11T16:55:22.037Z,97809.27
2019-02-11T16:57:50.204Z,97814.78
2019-02-11T17:00:19.515Z,97817.34
2019-02-11T17:02:47.690Z,97820.77
2019-02-11T17:05:15.866Z,97818.63
2019-02-11T17:07:44.080Z,97824.61
2019-02-11T17:10:15.661Z,97838.66
2019-02-11T17:12:43.849Z,97827.16
2019-02-11T17:15:15.305Z,97838.66
2019-02-11T17:17:43.470Z,97842.93
2019-02-11T17:20:16.030Z,97853.55
2019-02-11T17:22:44.563Z,97851.44
2019-02-11T17:25:13.744Z,97857.38
2019-02-11T17:27:42.124Z,97860.38
2019-02-11T17:30:13.390Z,97860.38
2019-02-11T17:32:41.730Z,97865.48
2019-02-11T17:35:10.408Z,97856.98
2019-02-11T17:37:38.581Z,97870.16
2019-02-11T17:40:12.140Z,97869.31
2019-02-11T17:42:40.325Z,97875.27
2019-02-11T17:45:17.444Z,97888.04
2019-02-11T17:47:45.691Z,97895.30
2019-02-11T17:50:14.591Z,97893.15
2019-02-11T17:52:42.823Z,97895.70
2019-02-11T17:55:12.918Z,97896.57
2019-02-11T17:57:41.138Z,97898.28
2019-02-11T18:00:17.242Z,97908.06
2019-02-11T18:02:45.495Z,97910.19
2019-02-11T18:05:13.702Z,97908.06
2019-02-11T18:07:41.870Z,97910.62
2019-02-11T18:10:10.104Z,97920.83
2019-02-11T18:12:38.642Z,97923.39
2019-02-11T18:15:10.029Z,97918.28
2019-02-11T18:17:38.215Z,97925.95
2019-02-11T18:20:08.228Z,97926.78
2019-02-11T18:22:36.405Z,97931.48
2019-02-11T18:25:06.610Z,97937.44
2019-02-11T18:27:36.741Z,97946.38
2019-02-11T18:30:08.014Z,97952.77
2019-02-11T18:32:36.184Z,97951.91
2019-02-11T18:35:07.142Z,97942.53
2019-02-11T18:37:35.310Z,97940.81
2019-02-11T18:40:04.150Z,97950.61
2019-02-11T18:42:32.318Z,97964.66
2019-02-11T18:45:00.495Z,97975.30
2019-02-11T18:47:38.521Z,97987.20
2019-02-11T18:50:15.597Z,97991.05
2019-02-11T18:52:43.806Z,97999.15
2019-02-11T18:55:13.866Z,98008.09
2019-02-11T18:57:42.034Z,98013.62
2019-02-11T19:00:13.817Z,98014.50
2019-02-11T19:02:41.992Z,98022.58
2019-02-11T19:05:10.169Z,98033.23
2019-02-11T19:07:38.412Z,98037.06
2019-02-11T19:10:09.491Z,98038.75
2019-02-11T19:12:37.669Z,98043.84
2019-02-11T19:15:08.786Z,98050.63
2019-02-11T19:17:36.964Z,98050.58
2019-02-11T19:20:08.082Z,98054.38
2019-02-11T19:22:36.261Z,98065.40
2019-02-11T19:25:05.975Z,98074.73
2019-02-11T19:27:34.140Z,98072.59
2019-02-11T19:30:02.311Z,98083.20
2019-02-11T19:32:30.478Z,98083.62
2019-02-11T19:34:58.650Z,98085.33
2019-02-11T19:37:26.824Z,98091.27
2019-02-11T19:39:54.994Z,98091.67
2019-02-11T19:42:23.174Z,98092.08
2019-02-11T19:44:51.353Z,98098.41
2019-02-11T19:47:20.502Z,98105.59
2019-02-11T19:49:51.792Z,98112.81
2019-02-11T19:52:18.603Z,98125.08
2019-02-11T19:54:46.780Z,98120.36
2019-02-11T19:57:14.950Z,98119.48
2019-02-11T19:59:44.080Z,98118.59
2019-02-11T20:02:12.319Z,98119.83
2019-02-11T20:04:40.497Z,98130.91
2019-02-11T20:07:08.823Z,98125.39
2019-02-11T20:09:36.998Z,98138.99
2019-02-11T20:12:05.181Z,98139.44
2019-02-11T20:14:33.357Z,98138.61
2019-02-11T20:17:01.538Z,98144.97
2019-02-11T20:19:30.668Z,98150.42
2019-02-11T20:21:58.851Z,98150.84
2019-02-11T20:24:27.029Z,98138.86
2019-02-11T20:26:55.216Z,98152.47
2019-02-11T20:29:23.392Z,98159.25
2019-02-11T20:31:51.570Z,98154.14
2019-02-11T20:34:19.744Z,98159.59
2019-02-11T20:36:47.907Z,98176.58
2019-02-11T20:39:16.086Z,98176.12
2019-02-11T20:41:44.258Z,98192.69
2019-02-11T20:44:12.450Z,98188.84
2019-02-11T20:46:40.626Z,98193.94
2019-02-11T20:49:09.768Z,98201.17
2019-02-11T20:51:37.939Z,98208.83
2019-02-11T20:54:06.123Z,98199.47
2019-02-11T20:56:34.299Z,98199.90
2019-02-11T20:59:02.485Z,98202.84
2019-02-11T21:01:31.689Z,98199.45
2019-02-11T21:03:59.876Z,98200.73
2019-02-11T21:06:29.296Z,98204.55
2019-02-11T21:08:57.398Z,98198.21
2019-02-11T21:11:26.398Z,98210.59
2019-02-11T21:13:54.583Z,98217.89
2019-02-11T21:16:22.760Z,98225.14
2019-02-11T21:18:51.008Z,98230.27
2019-02-11T21:21:19.182Z,98233.23
2019-02-11T21:23:47.355Z,98237.06
2019-02-11T21:26:15.531Z,98244.70
2019-02-11T21:28:43.740Z,98246.41
2019-02-11T21:31:11.906Z,98260.86
2019-02-11T21:33:40.082Z,98248.52
2019-02-11T21:36:08.270Z,98260.84
2019-02-11T21:38:36.438Z,98252.33
2019-02-11T21:41:04.722Z,98248.87
2019-02-11T21:43:32.971Z,98255.22
2019-02-11T21:46:01.173Z,98257.34
2019-02-11T21:48:29.348Z,98253.47
2019-02-11T21:50:57.537Z,98264.47
2019-02-11T21:53:25.715Z,98266.16
2019-02-11T21:55:53.907Z,98258.91
2019-02-11T21:58:23.055Z,98266.94
2019-02-11T22:00:51.258Z,98269.45
2019-02-11T22:03:19.453Z,98270.72
2019-02-11T22:05:47.623Z,98256.20
2019-02-11T22:08:15.811Z,98255.36
2019-02-11T22:10:44.004Z,98251.08
2019-02-11T22:13:12.212Z,98252.77
2019-02-11T22:15:40.499Z,98258.22
2019-02-11T22:18:08.704Z,98252.70
2019-02-11T22:20:36.895Z,98245.75
2019-02-11T22:23:05.110Z,98256.48
2019-02-11T22:25:33.278Z,98251.38
2019-02-11T22:28:01.536Z,98256.03
2019-02-11T22:30:30.665Z,98265.40
2019-02-11T22:32:58.845Z,98264.50
2019-02-11T22:35:27.040Z,98275.55
2019-02-11T22:37:55.206Z,98284.00
2019-02-11T22:40:23.470Z,98294.13
2019-02-11T22:42:51.685Z,98297.07
2019-02-11T22:45:25.203Z,98299.58
2019-02-11T22:47:54.322Z,98302.95
2019-02-11T22:50:22.562Z,98308.42
2019-02-11T22:52:50.754Z,98313.49
2019-02-11T22:55:19.021Z,98324.09
2019-02-11T22:57:47.202Z,98315.14
2019-02-11T23:00:47.124Z,98317.23
2019-02-11T23:03:15.424Z,98316.37
2019-02-11T23:05:43.684Z,98318.44
2019-02-11T23:08:11.883Z,98324.76
2019-02-11T23:10:40.111Z,98327.70
2019-02-11T23:13:08.323Z,98331.92
2019-02-11T23:15:36.493Z,98333.57
2019-02-11T23:18:04.670Z,98324.98
2019-02-11T23:20:32.848Z,98332.70
2019-02-11T23:23:01.015Z,98332.67
2019-02-11T23:25:29.185Z,98340.69
2019-02-11T23:27:57.432Z,98347.00
2019-02-11T23:30:25.611Z,98352.86
2019-02-11T23:32:53.786Z,98362.22
2019-02-11T23:35:21.976Z,98371.53
2019-02-11T23:37:50.149Z,98371.50
2019-02-11T23:40:18.334Z,98371.48
2019-02-11T23:42:46.530Z,98381.20
2019-02-11T23:45:14.750Z,98370.97
2019-02-11T23:47:42.926Z,98381.55
2019-02-11T23:50:11.839Z,98381.03
2019-02-11T23:52:40.036Z,98393.70
2019-02-11T23:55:09.383Z,98389.41
2019-02-11T23:57:37.559Z,98396.13
